Time;durP1;ratioP1;P1;durP2;ratioP2;P2;SDS_P1;SDS_P2;PMS_P1;PMS_P2;Temp;Humidity;BMP_temperature;BMP_pressure;BME280_temperature;BME280_humidity;BME280_pressure;Samples;Min_cycle;Max_cycle;Signal;HPM_P1;HPM_P2
2022/01/01 00:01:41;;;;;;;17.73;10.33;;;14.30;99.90;;;;;;5057110;28;20232;-90
2022/01/01 00:04:07;;;;;;;16.53;10.33;;;14.40;99.90;;;;;;5061901;28;20163;-87
2022/01/01 00:06:36;;;;;;;17.47;11.67;;;14.40;99.90;;;;;;5062735;28;20165;-89
2022/01/01 00:09:08;;;;;;;15.33;9.87;;;14.30;99.90;;;;;;5062605;28;20166;-83
2022/01/01 00:11:52;;;;;;;15.80;9.43;;;14.40;99.90;;;;;;5062674;28;20159;-82
2022/01/01 00:14:34;;;;;;;18.57;10.20;;;14.30;99.90;;;;;;5064824;28;20156;-84
2022/01/01 00:17:04;;;;;;;16.10;10.87;;;14.40;99.90;;;;;;5064141;28;20193;-85
2022/01/01 00:19:36;;;;;;;16.83;9.83;;;14.40;99.90;;;;;;5072412;28;20218;-82
2022/01/01 00:22:03;;;;;;;15.77;9.80;;;14.30;99.90;;;;;;5074782;28;20199;-83
2022/01/01 00:24:28;;;;;;;15.33;10.10;;;14.20;99.90;;;;;;5068986;28;20200;-82
2022/01/01 00:26:54;;;;;;;13.90;8.50;;;14.10;99.90;;;;;;5073825;28;20180;-88
2022/01/01 00:29:22;;;;;;;14.20;8.53;;;14.10;99.90;;;;;;5074966;28;20167;-89
2022/01/01 00:31:48;;;;;;;16.77;8.70;;;14.00;99.90;;;;;;5065787;28;20565;-83
2022/01/01 00:34:14;;;;;;;14.70;8.00;;;14.10;99.90;;;;;;5066549;28;20199;-88
2022/01/01 00:36:41;;;;;;;13.57;8.03;;;14.00;99.90;;;;;;5062906;28;20186;-89
2022/01/01 00:39:22;;;;;;;14.80;8.20;;;14.00;99.90;;;;;;5064654;28;20191;-90
2022/01/01 00:41:48;;;;;;;14.57;7.47;;;14.00;99.90;;;;;;5060244;28;20558;-88
2022/01/01 00:44:16;;;;;;;14.07;7.93;;;14.00;99.90;;;;;;5063453;28;20190;-90
2022/01/01 00:46:43;;;;;;;14.37;7.73;;;14.00;99.90;;;;;;5062327;28;20256;-82
2022/01/01 00:49:09;;;;;;;15.13;8.43;;;14.00;99.90;;;;;;5063309;28;20175;-82
2022/01/01 00:51:37;;;;;;;16.93;7.57;;;14.00;99.90;;;;;;5064080;28;20632;-82
2022/01/01 00:54:04;;;;;;;14.00;6.97;;;14.00;99.90;;;;;;5062186;28;20595;-82
2022/01/01 00:56:30;;;;;;;12.90;7.53;;;14.00;99.90;;;;;;5050427;28;20191;-86
2022/01/01 00:58:56;;;;;;;12.03;6.93;;;14.00;99.90;;;;;;5071080;28;20187;-85
2022/01/01 01:01:21;;;;;;;14.23;7.23;;;14.00;99.90;;;;;;5054129;28;20175;-83
2022/01/01 01:03:47;;;;;;;13.20;7.33;;;14.00;99.90;;;;;;5064252;28;20556;-82
2022/01/01 01:06:14;;;;;;;14.03;7.47;;;14.20;99.90;;;;;;5064059;28;20184;-87
2022/01/01 01:08:41;;;;;;;12.77;8.20;;;14.10;99.90;;;;;;5062953;28;20259;-90
2022/01/01 01:11:08;;;;;;;13.97;8.63;;;14.30;99.90;;;;;;5063195;28;20177;-86
2022/01/01 01:13:44;;;;;;;16.53;8.17;;;14.10;99.90;;;;;;5064625;28;20175;-90
2022/01/01 01:16:13;;;;;;;14.43;8.47;;;14.20;99.90;;;;;;5064599;28;20183;-91
2022/01/01 01:18:39;;;;;;;15.07;8.43;;;14.10;99.90;;;;;;5064012;28;20177;-82
2022/01/01 01:21:06;;;;;;;15.93;9.17;;;14.10;99.90;;;;;;5064504;28;20265;-83
2022/01/01 01:23:33;;;;;;;18.70;8.73;;;14.20;99.90;;;;;;5066027;28;20199;-90
2022/01/01 01:26:01;;;;;;;11.20;7.83;;;14.30;99.90;;;;;;5067100;28;20168;-84
2022/01/01 01:28:27;;;;;;;14.73;8.93;;;14.50;99.90;;;;;;5061673;28;20174;-81
2022/01/01 01:30:52;;;;;;;13.77;9.17;;;14.40;99.90;;;;;;5058770;28;20191;-89
2022/01/01 01:33:18;;;;;;;13.90;9.67;;;14.40;99.90;;;;;;5058928;28;20179;-82
2022/01/01 01:35:45;;;;;;;14.30;9.00;;;14.50;99.90;;;;;;5067169;28;20194;-82
2022/01/01 01:38:10;;;;;;;14.57;9.43;;;14.40;99.90;;;;;;5068982;28;20181;-89
2022/01/01 01:40:36;;;;;;;17.77;9.60;;;14.50;99.90;;;;;;5065161;28;20182;-81
2022/01/01 01:43:08;;;;;;;14.57;9.77;;;14.30;99.90;;;;;;5063690;28;20223;-89
2022/01/01 01:45:34;;;;;;;17.57;10.50;;;14.20;99.90;;;;;;5058596;28;20160;-82
2022/01/01 01:48:03;;;;;;;16.70;9.90;;;14.30;99.90;;;;;;5062823;28;20162;-83
2022/01/01 01:50:33;;;;;;;16.43;9.33;;;14.10;99.90;;;;;;5057800;28;20191;-82
2022/01/01 01:53:00;;;;;;;17.50;9.47;;;14.10;99.90;;;;;;5058746;28;20234;-86
2022/01/01 01:55:29;;;;;;;16.57;8.87;;;14.00;99.90;;;;;;5057170;28;20248;-83
2022/01/01 01:57:57;;;;;;;13.37;9.80;;;13.90;99.90;;;;;;5057227;28;20229;-82
2022/01/01 02:03:06;;;;;;;11.70;8.27;;;13.80;99.90;;;;;;5058915;28;20209;-89
2022/01/01 02:05:39;;;;;;;11.77;8.43;;;13.80;99.90;;;;;;5066618;28;20514;-82
2022/01/01 02:08:09;;;;;;;18.50;8.60;;;13.80;99.90;;;;;;5071743;28;20180;-84
2022/01/01 02:10:36;;;;;;;17.37;9.00;;;13.80;99.90;;;;;;5066580;28;20640;-80
2022/01/01 02:13:14;;;;;;;12.73;8.07;;;13.90;99.90;;;;;;5058889;28;20178;-84
2022/01/01 02:15:48;;;;;;;12.33;7.93;;;13.90;99.90;;;;;;5057213;28;20210;-89
2022/01/01 02:18:14;;;;;;;12.57;7.30;;;13.90;99.90;;;;;;5055732;28;20186;-88
2022/01/01 02:20:40;;;;;;;11.47;6.77;;;13.90;99.90;;;;;;5059731;28;20163;-88
2022/01/01 02:23:11;;;;;;;13.23;6.83;;;13.90;99.90;;;;;;5058432;28;20210;-88
2022/01/01 02:25:37;;;;;;;12.87;6.33;;;13.90;99.90;;;;;;5055493;28;20171;-87
2022/01/01 02:28:02;;;;;;;11.60;6.13;;;13.90;99.90;;;;;;5055460;28;20708;-82
2022/01/01 02:30:28;;;;;;;12.50;5.90;;;13.80;99.90;;;;;;5059129;28;20303;-89
2022/01/01 02:32:54;;;;;;;13.33;5.93;;;13.80;99.90;;;;;;5056528;28;20316;-89
2022/01/01 02:35:36;;;;;;;11.60;6.00;;;13.80;99.90;;;;;;5058518;28;20617;-81
2022/01/01 02:38:18;;;;;;;11.37;5.80;;;13.90;99.90;;;;;;5055905;28;20180;-88
2022/01/01 02:40:49;;;;;;;11.87;5.73;;;13.90;99.90;;;;;;5059909;28;20162;-89
2022/01/01 02:43:19;;;;;;;10.57;5.83;;;13.90;99.90;;;;;;5057874;28;20225;-83
2022/01/01 02:45:50;;;;;;;11.87;5.43;;;13.90;99.90;;;;;;5069307;28;20160;-81
2022/01/01 02:48:19;;;;;;;13.93;5.47;;;13.90;99.90;;;;;;5074593;28;20159;-86
2022/01/01 02:50:51;;;;;;;9.93;5.90;;;13.80;99.90;;;;;;5074175;28;20270;-86
2022/01/01 02:53:17;;;;;;;9.73;5.30;;;13.70;99.90;;;;;;5067753;28;20175;-88
2022/01/01 02:55:46;;;;;;;12.80;5.70;;;13.70;99.90;;;;;;5065908;28;20213;-82
2022/01/01 02:58:18;;;;;;;10.83;5.27;;;13.70;99.90;;;;;;5059919;28;20689;-89
2022/01/01 03:00:46;;;;;;;9.37;5.77;;;13.60;99.90;;;;;;5056029;28;20181;-83
2022/01/01 03:03:12;;;;;;;12.63;5.10;;;13.50;99.90;;;;;;5061185;28;20208;-83
2022/01/01 03:05:38;;;;;;;10.67;5.50;;;13.50;99.90;;;;;;5067433;28;20218;-88
2022/01/01 03:08:10;;;;;;;11.17;6.10;;;13.70;99.90;;;;;;5073887;28;20184;-82
2022/01/01 03:10:36;;;;;;;11.30;5.27;;;13.80;99.90;;;;;;5075385;28;20190;-80
2022/01/01 03:13:03;;;;;;;10.13;5.57;;;13.60;99.90;;;;;;5074961;28;20148;-80
2022/01/01 03:15:28;;;;;;;9.93;5.07;;;13.50;99.90;;;;;;5073150;28;20186;-83
2022/01/01 03:17:56;;;;;;;10.60;5.37;;;13.50;99.90;;;;;;5073723;28;20185;-80
2022/01/01 03:20:22;;;;;;;11.63;6.27;;;13.40;99.90;;;;;;5069600;28;20171;-84
2022/01/01 03:22:47;;;;;;;12.10;5.73;;;13.40;99.90;;;;;;5070925;28;20200;-83
2022/01/01 03:25:13;;;;;;;10.37;5.60;;;13.50;99.90;;;;;;5072711;28;20192;-82
2022/01/01 03:27:39;;;;;;;8.80;5.80;;;13.30;99.90;;;;;;5073662;28;20178;-87
2022/01/01 03:30:06;;;;;;;12.00;5.80;;;13.40;99.90;;;;;;5070385;28;20176;-81
2022/01/01 03:32:31;;;;;;;11.77;6.43;;;13.40;99.90;;;;;;5073855;28;20242;-84
2022/01/01 03:34:57;;;;;;;11.97;6.80;;;13.40;99.90;;;;;;5058524;28;20225;-87
2022/01/01 03:37:23;;;;;;;13.17;6.63;;;13.50;99.90;;;;;;5061979;28;20239;-90
2022/01/01 03:39:48;;;;;;;10.50;6.60;;;13.40;99.90;;;;;;5064691;28;20518;-90
2022/01/01 03:42:14;;;;;;;12.07;6.23;;;13.40;99.90;;;;;;5061432;28;20673;-81
2022/01/01 03:44:40;;;;;;;13.97;6.87;;;13.30;99.90;;;;;;5060200;28;20179;-85
2022/01/01 03:47:12;;;;;;;10.87;5.97;;;13.30;99.90;;;;;;5061046;28;20635;-83
2022/01/01 03:49:39;;;;;;;12.07;6.87;;;13.30;99.90;;;;;;5061271;28;20618;-90
2022/01/01 03:52:05;;;;;;;11.93;6.20;;;13.20;99.90;;;;;;5060931;28;20241;-83
2022/01/01 03:54:32;;;;;;;12.40;6.43;;;13.10;99.90;;;;;;5058719;28;20206;-89
2022/01/01 03:56:58;;;;;;;11.70;6.73;;;13.10;99.90;;;;;;5060509;28;20243;-88
2022/01/01 03:59:26;;;;;;;13.40;6.87;;;13.10;99.90;;;;;;5059113;28;20178;-90
2022/01/01 04:01:52;;;;;;;13.53;7.53;;;13.20;99.90;;;;;;5059400;28;20206;-88
2022/01/01 04:04:22;;;;;;;12.13;7.27;;;13.00;99.90;;;;;;5058792;28;20208;-88
2022/01/01 04:06:48;;;;;;;10.93;7.33;;;13.00;99.90;;;;;;5059648;28;20169;-88
2022/01/01 04:09:14;;;;;;;14.07;7.27;;;12.90;99.90;;;;;;5058426;28;20183;-82
2022/01/01 04:11:40;;;;;;;13.57;6.83;;;12.80;99.90;;;;;;5061870;28;20189;-80
2022/01/01 04:14:11;;;;;;;13.17;6.37;;;12.80;99.90;;;;;;5043752;28;20601;-88
2022/01/01 04:16:37;;;;;;;10.50;6.37;;;12.80;99.90;;;;;;5060524;28;20184;-89
2022/01/01 04:19:02;;;;;;;12.67;7.63;;;12.60;99.90;;;;;;5061812;28;20150;-90
2022/01/01 04:21:28;;;;;;;11.07;6.57;;;12.80;99.90;;;;;;5059323;28;20176;-90
2022/01/01 04:23:54;;;;;;;10.97;6.83;;;12.80;99.90;;;;;;5061216;28;20485;-89
2022/01/01 04:26:19;;;;;;;11.03;6.73;;;12.70;99.90;;;;;;5060631;28;20169;-88
2022/01/01 04:32:09;;;;;;;11.00;7.20;;;12.70;99.90;;;;;;5059969;28;20173;-87
2022/01/01 04:34:57;;;;;;;13.10;7.23;;;12.70;99.90;;;;;;5059433;28;20189;-89
2022/01/01 04:37:25;;;;;;;16.47;6.97;;;12.70;99.90;;;;;;5066863;28;20191;-87
2022/01/01 04:39:57;;;;;;;12.57;6.77;;;12.70;99.90;;;;;;5067918;28;20161;-82
2022/01/01 04:42:22;;;;;;;13.70;6.70;;;12.60;99.90;;;;;;5077189;28;20185;-85
2022/01/01 04:44:49;;;;;;;12.50;6.37;;;12.60;99.90;;;;;;5079896;28;20184;-80
2022/01/01 04:47:15;;;;;;;9.50;6.33;;;12.60;99.90;;;;;;5074774;28;20195;-90
2022/01/01 04:49:44;;;;;;;12.27;6.27;;;12.70;99.90;;;;;;5076153;28;20241;-83
2022/01/01 04:52:12;;;;;;;16.10;7.03;;;12.60;99.90;;;;;;5075981;28;20201;-81
2022/01/01 04:54:41;;;;;;;14.50;6.70;;;12.60;99.90;;;;;;5069997;28;20171;-86
2022/01/01 04:57:07;;;;;;;10.80;6.87;;;12.50;99.90;;;;;;5063623;28;20199;-90
2022/01/01 04:59:35;;;;;;;10.90;6.17;;;12.60;99.90;;;;;;5060947;28;20226;-85
2022/01/01 05:02:02;;;;;;;9.73;6.60;;;12.60;99.90;;;;;;5059861;28;20249;-89
2022/01/01 05:04:27;;;;;;;14.63;6.07;;;12.70;99.90;;;;;;5059832;28;20244;-82
2022/01/01 05:06:53;;;;;;;11.13;6.50;;;12.80;99.90;;;;;;5059128;28;20570;-89
2022/01/01 05:09:19;;;;;;;12.93;6.97;;;12.70;99.90;;;;;;5060055;28;20658;-83
2022/01/01 05:11:46;;;;;;;11.33;6.50;;;12.70;99.90;;;;;;5058609;28;20649;-85
2022/01/01 05:14:13;;;;;;;15.67;6.63;;;12.70;99.90;;;;;;5059657;28;20181;-87
2022/01/01 05:16:40;;;;;;;11.63;6.33;;;12.80;99.90;;;;;;5060285;28;20165;-89
2022/01/01 05:19:06;;;;;;;11.37;6.27;;;12.60;99.90;;;;;;5043303;28;20177;-83
2022/01/01 05:21:34;;;;;;;12.03;6.33;;;12.60;99.90;;;;;;5060571;28;20257;-81
2022/01/01 05:24:02;;;;;;;11.33;6.90;;;12.70;99.90;;;;;;5059813;28;20240;-87
2022/01/01 05:26:28;;;;;;;17.63;8.90;;;12.60;99.90;;;;;;5059682;28;20176;-86
2022/01/01 05:28:54;;;;;;;13.00;6.30;;;12.70;99.90;;;;;;5058593;28;20252;-85
2022/01/01 05:31:20;;;;;;;12.40;6.53;;;12.70;99.90;;;;;;5058418;28;20177;-88
2022/01/01 05:33:46;;;;;;;15.07;6.63;;;12.80;99.90;;;;;;5057933;28;20208;-85
2022/01/01 05:36:13;;;;;;;12.37;6.47;;;12.80;99.90;;;;;;5062389;28;20205;-87
2022/01/01 05:38:41;;;;;;;11.93;6.87;;;12.90;99.90;;;;;;5057432;28;20629;-88
2022/01/01 05:41:07;;;;;;;15.20;6.67;;;12.80;99.90;;;;;;5057770;28;20201;-87
2022/01/01 05:43:33;;;;;;;12.40;7.47;;;12.70;99.90;;;;;;5055848;28;20255;-87
2022/01/01 05:45:58;;;;;;;15.23;8.53;;;12.80;99.90;;;;;;5057749;28;20223;-88
2022/01/01 05:48:24;;;;;;;12.73;6.80;;;12.80;99.90;;;;;;5057365;28;20619;-87
2022/01/01 05:50:50;;;;;;;10.87;6.53;;;12.80;99.90;;;;;;5056762;28;20178;-86
2022/01/01 05:53:17;;;;;;;12.73;6.43;;;12.80;99.90;;;;;;5058357;28;20692;-88
2022/01/01 05:55:43;;;;;;;10.60;6.27;;;12.80;99.90;;;;;;5057853;28;20194;-85
2022/01/01 05:58:08;;;;;;;11.73;6.00;;;12.80;99.90;;;;;;5058528;28;20178;-83
2022/01/01 06:00:35;;;;;;;14.57;6.43;;;12.80;99.90;;;;;;5058190;28;20200;-88
2022/01/01 06:03:02;;;;;;;10.23;6.37;;;12.70;99.90;;;;;;5058719;28;20786;-87
2022/01/01 06:05:28;;;;;;;13.90;6.90;;;12.70;99.90;;;;;;5057726;28;20260;-89
2022/01/01 06:07:55;;;;;;;12.43;6.57;;;12.70;99.90;;;;;;5040949;28;20192;-89
2022/01/01 06:10:23;;;;;;;13.17;6.50;;;12.60;99.90;;;;;;5056316;28;20256;-85
2022/01/01 06:12:49;;;;;;;14.50;6.97;;;12.60;99.90;;;;;;5057763;28;20264;-88
2022/01/01 06:15:15;;;;;;;10.40;6.83;;;12.60;99.90;;;;;;5055515;28;20223;-84
2022/01/01 06:17:40;;;;;;;13.73;6.87;;;12.50;99.90;;;;;;5055953;28;20174;-88
2022/01/01 06:20:06;;;;;;;11.40;6.47;;;12.50;99.90;;;;;;5056541;28;20185;-83
2022/01/01 06:22:32;;;;;;;13.40;8.10;;;12.50;99.90;;;;;;5056630;28;20215;-81
2022/01/01 06:24:58;;;;;;;11.03;6.47;;;12.40;99.90;;;;;;5057166;28;20167;-88
2022/01/01 06:27:23;;;;;;;13.40;7.20;;;12.40;99.90;;;;;;5056564;28;20184;-88
2022/01/01 06:29:50;;;;;;;13.37;7.07;;;12.30;99.90;;;;;;5054601;28;20256;-89
2022/01/01 06:32:16;;;;;;;12.87;7.33;;;12.30;99.90;;;;;;5060484;28;20224;-86
2022/01/01 06:34:42;;;;;;;14.10;7.57;;;12.40;99.90;;;;;;5063540;28;20200;-82
2022/01/01 06:37:08;;;;;;;10.77;7.10;;;12.20;99.90;;;;;;5063059;28;20193;-86
2022/01/01 06:39:34;;;;;;;15.77;7.47;;;12.20;99.90;;;;;;5066394;28;20173;-87
2022/01/01 06:41:59;;;;;;;19.83;7.47;;;12.10;99.90;;;;;;5067049;28;20216;-81
2022/01/01 06:44:25;;;;;;;12.90;7.83;;;12.10;99.90;;;;;;5064157;28;20212;-82
2022/01/01 06:46:53;;;;;;;11.03;8.07;;;12.10;99.90;;;;;;5064805;28;20192;-85
2022/01/01 06:49:19;;;;;;;12.87;7.83;;;12.10;99.90;;;;;;5057205;28;20168;-87
2022/01/01 06:51:47;;;;;;;12.73;7.80;;;12.10;99.90;;;;;;5055970;28;20179;-88
2022/01/01 06:54:13;;;;;;;14.50;8.83;;;12.10;99.90;;;;;;5056818;28;20204;-87
2022/01/01 06:56:39;;;;;;;18.33;9.53;;;12.10;99.90;;;;;;5054955;28;20208;-83
2022/01/01 06:59:04;;;;;;;15.10;9.10;;;12.00;99.90;;;;;;5056597;28;20165;-88
2022/01/01 07:01:30;;;;;;;16.87;9.97;;;11.90;99.90;;;;;;5055751;28;20177;-89
2022/01/01 07:03:57;;;;;;;14.23;10.47;;;12.00;99.90;;;;;;5056526;28;20193;-82
2022/01/01 07:06:23;;;;;;;18.47;9.83;;;11.80;99.90;;;;;;5055592;28;20176;-88
2022/01/01 07:08:49;;;;;;;16.93;10.87;;;11.80;99.90;;;;;;5055658;28;20256;-88
2022/01/01 07:11:15;;;;;;;14.07;9.47;;;11.80;99.90;;;;;;5065964;28;20205;-88
2022/01/01 07:13:42;;;;;;;16.47;10.57;;;11.70;99.90;;;;;;5069555;28;20173;-82
2022/01/01 07:16:07;;;;;;;15.17;9.83;;;11.80;99.90;;;;;;5065913;28;20233;-83
2022/01/01 07:18:33;;;;;;;17.67;10.47;;;11.70;99.90;;;;;;5061894;28;20162;-84
2022/01/01 07:20:58;;;;;;;14.93;10.27;;;11.70;99.90;;;;;;5057397;28;20177;-83
2022/01/01 07:23:24;;;;;;;16.40;10.60;;;11.80;99.90;;;;;;5056955;28;20204;-89
2022/01/01 07:25:50;;;;;;;17.63;11.17;;;11.80;99.90;;;;;;5056870;28;20180;-89
2022/01/01 07:28:16;;;;;;;15.87;10.83;;;11.90;99.90;;;;;;5054716;28;20576;-84
2022/01/01 07:30:45;;;;;;;13.80;10.07;;;11.80;99.90;;;;;;5057498;28;20231;-86
2022/01/01 07:33:15;;;;;;;15.60;10.87;;;11.90;99.90;;;;;;5062840;28;20618;-86
2022/01/01 07:35:41;;;;;;;15.83;10.93;;;11.70;99.90;;;;;;5061259;28;20181;-88
2022/01/01 07:38:08;;;;;;;16.53;10.43;;;11.90;99.90;;;;;;5060963;28;20169;-85
2022/01/01 07:40:35;;;;;;;18.87;10.73;;;11.70;99.90;;;;;;5059553;28;20204;-86
2022/01/01 07:43:08;;;;;;;19.53;11.17;;;11.70;99.90;;;;;;5060586;28;20205;-83
2022/01/01 07:45:34;;;;;;;15.00;11.03;;;11.60;99.90;;;;;;5064603;28;20601;-82
2022/01/01 07:48:00;;;;;;;16.13;11.13;;;11.60;99.90;;;;;;5070419;28;20169;-80
2022/01/01 07:50:25;;;;;;;17.50;10.73;;;11.60;99.90;;;;;;5069063;28;20169;-81
2022/01/01 07:52:51;;;;;;;15.60;11.73;;;11.60;99.90;;;;;;5070614;28;20161;-81
2022/01/01 07:55:17;;;;;;;14.33;10.90;;;11.50;99.90;;;;;;5069336;28;20189;-81
2022/01/01 07:57:42;;;;;;;16.13;10.60;;;11.60;99.90;;;;;;5069529;28;20267;-81
2022/01/01 08:00:09;;;;;;;16.43;10.57;;;11.50;99.90;;;;;;5068182;28;20236;-82
2022/01/01 08:02:46;;;;;;;15.67;11.47;;;11.50;99.90;;;;;;5066583;28;20220;-81
2022/01/01 08:05:15;;;;;;;16.93;11.83;;;11.50;99.90;;;;;;5065423;28;20173;-86
2022/01/01 08:07:45;;;;;;;16.40;10.90;;;11.60;99.90;;;;;;5060343;28;20180;-89
2022/01/01 08:10:14;;;;;;;14.07;9.97;;;11.60;99.90;;;;;;5061034;28;20180;-89
2022/01/01 08:12:46;;;;;;;16.70;12.43;;;11.60;99.90;;;;;;5061883;28;20157;-89
2022/01/01 08:15:11;;;;;;;12.47;10.47;;;11.60;99.90;;;;;;5059618;28;20153;-87
2022/01/01 08:17:38;;;;;;;17.27;11.23;;;11.60;99.90;;;;;;5058320;28;20200;-82
2022/01/01 08:20:04;;;;;;;14.60;11.20;;;11.70;99.90;;;;;;5062152;28;20173;-81
2022/01/01 08:22:33;;;;;;;15.87;11.57;;;11.70;99.90;;;;;;5060629;28;20209;-84
2022/01/01 08:25:02;;;;;;;15.57;11.37;;;11.70;99.90;;;;;;5059804;28;20225;-83
2022/01/01 08:27:30;;;;;;;14.87;11.70;;;11.80;99.90;;;;;;5071727;28;20157;-81
2022/01/01 08:29:57;;;;;;;16.47;11.77;;;11.80;99.90;;;;;;5071595;28;20205;-79
2022/01/01 08:32:23;;;;;;;16.63;11.57;;;11.80;99.90;;;;;;5070002;28;20169;-83
2022/01/01 08:34:52;;;;;;;13.47;10.77;;;11.70;99.90;;;;;;5058797;28;20726;-88
2022/01/01 08:37:21;;;;;;;15.23;11.00;;;11.60;99.90;;;;;;5059343;28;20252;-84
2022/01/01 08:39:48;;;;;;;15.77;10.80;;;11.70;99.90;;;;;;5058343;28;20161;-82
2022/01/01 08:42:18;;;;;;;14.23;10.70;;;11.80;99.90;;;;;;5057192;28;20244;-88
2022/01/01 08:44:45;;;;;;;14.93;9.93;;;11.70;99.90;;;;;;5059570;28;20165;-83
2022/01/01 08:47:11;;;;;;;15.80;11.17;;;11.70;99.90;;;;;;5059100;28;20245;-87
2022/01/01 08:49:36;;;;;;;12.37;10.40;;;11.70;99.90;;;;;;5059148;28;20648;-85
2022/01/01 08:52:04;;;;;;;15.53;10.90;;;11.70;99.90;;;;;;5057432;28;20173;-86
2022/01/01 08:54:29;;;;;;;14.23;11.20;;;11.70;99.90;;;;;;5058104;28;20176;-88
2022/01/01 08:56:55;;;;;;;15.00;11.00;;;11.70;99.90;;;;;;5060256;28;20209;-89
2022/01/01 08:59:36;;;;;;;14.53;11.17;;;11.80;99.90;;;;;;5059497;28;20169;-87
2022/01/01 09:02:05;;;;;;;16.23;11.67;;;11.60;99.90;;;;;;5058968;28;20193;-88
2022/01/01 09:04:31;;;;;;;14.70;10.97;;;11.80;99.90;;;;;;5058182;28;20288;-84
2022/01/01 09:07:00;;;;;;;12.37;11.03;;;11.90;99.90;;;;;;5057870;28;20204;-81
2022/01/01 09:09:26;;;;;;;14.90;11.40;;;11.90;99.90;;;;;;5059769;28;20173;-82
2022/01/01 09:11:51;;;;;;;12.93;10.80;;;11.90;99.90;;;;;;5060667;28;20260;-85
2022/01/01 09:14:17;;;;;;;15.97;11.67;;;11.90;99.90;;;;;;5062467;28;20172;-82
2022/01/01 09:16:44;;;;;;;11.73;9.80;;;11.90;99.90;;;;;;5070442;28;20171;-81
2022/01/01 09:19:10;;;;;;;13.33;10.53;;;11.90;99.90;;;;;;5071237;28;20511;-81
2022/01/01 09:21:36;;;;;;;13.27;10.43;;;12.00;99.90;;;;;;5071981;28;20191;-83
2022/01/01 09:24:02;;;;;;;14.37;10.80;;;12.00;99.90;;;;;;5070849;28;20208;-80
2022/01/01 09:26:29;;;;;;;15.83;10.80;;;12.00;99.90;;;;;;5071968;28;20160;-82
2022/01/01 09:28:55;;;;;;;12.93;10.90;;;12.10;99.90;;;;;;5075149;28;20157;-84
2022/01/01 09:31:21;;;;;;;15.07;12.00;;;12.10;99.90;;;;;;5064302;28;20562;-84
2022/01/01 09:33:47;;;;;;;15.00;12.10;;;12.20;99.90;;;;;;5060931;28;20197;-88
2022/01/01 09:36:17;;;;;;;17.20;13.23;;;12.20;99.90;;;;;;5063923;28;20214;-84
2022/01/01 09:38:44;;;;;;;16.70;13.37;;;12.10;99.90;;;;;;5061667;28;20171;-81
2022/01/01 09:41:12;;;;;;;13.77;12.37;;;12.20;99.90;;;;;;5060223;28;20301;-87
2022/01/01 09:43:38;;;;;;;16.20;13.20;;;12.20;99.90;;;;;;5058074;28;20216;-88
2022/01/01 09:46:04;;;;;;;18.23;12.73;;;12.20;99.90;;;;;;5058957;28;20173;-86
2022/01/01 09:48:30;;;;;;;15.50;12.90;;;12.20;99.90;;;;;;5058518;28;20197;-87
2022/01/01 09:51:01;;;;;;;14.20;12.70;;;12.10;99.90;;;;;;5058694;28;20158;-81
2022/01/01 09:53:33;;;;;;;14.03;12.03;;;12.10;99.90;;;;;;5058076;28;20169;-86
2022/01/01 09:56:03;;;;;;;15.17;11.70;;;12.10;99.90;;;;;;5057836;28;20267;-87
2022/01/01 09:58:35;;;;;;;13.33;11.03;;;12.20;99.90;;;;;;5066678;28;20238;-89
2022/01/01 10:01:03;;;;;;;12.50;10.87;;;12.20;99.90;;;;;;5063364;28;20172;-89
2022/01/01 10:03:40;;;;;;;13.03;10.37;;;12.40;99.90;;;;;;5050833;28;20213;-90
2022/01/01 10:06:09;;;;;;;11.10;9.23;;;12.30;99.90;;;;;;5069839;28;20253;-88
2022/01/01 10:08:40;;;;;;;13.83;10.23;;;12.30;99.90;;;;;;5069514;28;20174;-90
2022/01/01 10:11:07;;;;;;;11.87;9.67;;;12.40;99.90;;;;;;5060205;28;20177;-83
2022/01/01 10:13:37;;;;;;;11.60;9.50;;;12.40;99.90;;;;;;5078255;28;20172;-83
2022/01/01 10:16:05;;;;;;;11.60;9.03;;;12.60;99.90;;;;;;5078274;28;20181;-84
2022/01/01 10:18:34;;;;;;;11.13;9.37;;;12.60;99.90;;;;;;5078464;28;20149;-83
2022/01/01 10:21:09;;;;;;;9.93;8.33;;;12.60;99.90;;;;;;5076094;28;20224;-81
2022/01/01 10:23:39;;;;;;;11.27;8.87;;;12.70;99.90;;;;;;5066618;28;20269;-84
2022/01/01 10:28:57;;;;;;;11.17;7.53;;;12.80;99.90;;;;;;5069060;28;20222;-89
2022/01/01 10:31:24;;;;;;;9.70;6.57;;;13.00;99.90;;;;;;5067110;28;20152;-83
2022/01/01 10:33:50;;;;;;;9.63;7.00;;;13.00;99.90;;;;;;5065410;28;20216;-83
2022/01/01 10:36:20;;;;;;;7.90;5.73;;;13.00;99.90;;;;;;5070473;28;20165;-86
2022/01/01 10:38:48;;;;;;;10.37;6.57;;;13.10;99.90;;;;;;5070202;28;20162;-83
2022/01/01 10:41:16;;;;;;;8.17;6.17;;;13.10;99.90;;;;;;5069321;28;20169;-85
2022/01/01 10:43:44;;;;;;;8.27;5.70;;;13.20;99.90;;;;;;5069128;28;20216;-85
2022/01/01 10:46:14;;;;;;;8.87;6.03;;;13.30;99.90;;;;;;5060798;28;20172;-83
2022/01/01 10:49:19;;;;;;;10.67;5.43;;;13.40;99.90;;;;;;5062210;28;20190;-87
2022/01/01 10:51:48;;;;;;;5.53;4.60;;;13.40;99.90;;;;;;5061578;28;20204;-87
2022/01/01 10:54:24;;;;;;;6.53;4.53;;;13.40;99.90;;;;;;5059515;28;20220;-89
2022/01/01 10:56:54;;;;;;;6.73;4.20;;;13.40;99.90;;;;;;5060579;28;20201;-84
2022/01/01 10:59:30;;;;;;;6.40;4.83;;;13.50;99.90;;;;;;5059863;28;20167;-84
2022/01/01 11:02:06;;;;;;;7.23;4.40;;;13.50;99.90;;;;;;5056661;28;20230;-84
2022/01/01 11:04:34;;;;;;;6.70;4.23;;;13.60;99.90;;;;;;5057456;28;20175;-86
2022/01/01 11:07:32;;;;;;;7.00;4.67;;;13.70;99.90;;;;;;5061615;28;20185;-86
2022/01/01 11:10:01;;;;;;;5.63;3.80;;;13.70;99.90;;;;;;5060850;28;20520;-90
2022/01/01 11:12:29;;;;;;;6.03;4.00;;;13.90;99.90;;;;;;5058240;28;20163;-89
2022/01/01 11:15:00;;;;;;;6.23;4.30;;;14.00;99.90;;;;;;5039621;28;20306;-88
2022/01/01 11:17:26;;;;;;;5.20;3.87;;;14.10;99.90;;;;;;5056100;28;20179;-90
2022/01/01 11:19:52;;;;;;;4.93;3.63;;;14.20;99.90;;;;;;5056668;28;20177;-86
2022/01/01 11:22:18;;;;;;;6.23;3.77;;;14.40;99.30;;;;;;5058006;28;20211;-86
2022/01/01 11:24:45;;;;;;;5.97;3.60;;;14.30;98.50;;;;;;5057059;28;20274;-89
2022/01/01 11:27:12;;;;;;;7.90;4.20;;;14.10;98.80;;;;;;5061142;28;20165;-89
2022/01/01 11:29:49;;;;;;;6.90;4.30;;;14.10;99.50;;;;;;5060053;28;20179;-87
2022/01/01 11:32:17;;;;;;;4.07;2.97;;;14.00;99.90;;;;;;5058614;28;20180;-90
2022/01/01 11:34:46;;;;;;;4.77;3.50;;;14.10;99.90;;;;;;5059039;28;20181;-89
2022/01/01 11:37:16;;;;;;;4.47;3.20;;;14.20;99.90;;;;;;5059314;28;20207;-85
2022/01/01 11:39:43;;;;;;;5.60;3.70;;;14.20;99.80;;;;;;5059430;28;20512;-88
2022/01/01 11:42:13;;;;;;;5.07;3.03;;;14.30;99.60;;;;;;5062036;28;20200;-87
2022/01/01 11:44:50;;;;;;;5.67;2.97;;;14.40;99.00;;;;;;5059468;28;20636;-90
2022/01/01 11:47:24;;;;;;;5.27;3.27;;;14.40;98.80;;;;;;5059701;28;20180;-88
2022/01/01 11:49:53;;;;;;;6.13;2.90;;;14.40;98.80;;;;;;5059338;28;20177;-89
2022/01/01 11:52:44;;;;;;;5.13;2.47;;;14.50;98.70;;;;;;5061142;28;20179;-85
2022/01/01 11:55:18;;;;;;;4.53;2.50;;;14.60;97.80;;;;;;5060723;28;20200;-86
2022/01/01 11:57:57;;;;;;;6.33;2.93;;;14.60;97.20;;;;;;5070928;28;20194;-83
2022/01/01 12:00:27;;;;;;;3.30;2.20;;;14.50;97.80;;;;;;5080324;28;20605;-81
2022/01/01 12:03:12;;;;;;;4.23;2.20;;;14.50;97.80;;;;;;5080403;28;20239;-84
2022/01/01 12:05:39;;;;;;;4.10;2.20;;;14.50;97.20;;;;;;5079484;28;20158;-83
2022/01/01 12:08:05;;;;;;;3.80;2.43;;;14.50;97.50;;;;;;5078949;28;20237;-80
2022/01/01 12:10:35;;;;;;;4.37;2.23;;;14.50;97.40;;;;;;5080577;28;20175;-81
2022/01/01 12:13:09;;;;;;;2.73;2.00;;;14.60;97.10;;;;;;5079719;28;20179;-86
2022/01/01 12:15:45;;;;;;;4.00;2.37;;;14.60;97.20;;;;;;5079079;28;20173;-84
2022/01/01 12:18:13;;;;;;;5.37;2.07;;;14.70;97.10;;;;;;5079172;28;20236;-80
2022/01/01 12:20:57;;;;;;;4.23;2.20;;;14.70;96.80;;;;;;5078624;28;20165;-80
2022/01/01 12:23:33;;;;;;;3.57;2.20;;;14.90;96.20;;;;;;5078529;28;20250;-88
2022/01/01 12:25:58;;;;;;;4.50;2.50;;;15.00;96.00;;;;;;5074061;28;20224;-89
2022/01/01 12:28:37;;;;;;;4.00;2.13;;;15.00;95.40;;;;;;5073944;28;20687;-90
2022/01/01 12:31:12;;;;;;;3.77;2.43;;;15.00;95.70;;;;;;5069321;28;20176;-85
2022/01/01 12:33:38;;;;;;;4.57;2.30;;;15.10;95.30;;;;;;5070890;28;20194;-87
2022/01/01 12:36:09;;;;;;;3.30;1.93;;;15.30;94.90;;;;;;5072901;28;20172;-88
2022/01/01 12:38:35;;;;;;;3.97;2.20;;;15.10;94.70;;;;;;5053552;28;20260;-88
2022/01/01 12:41:04;;;;;;;4.63;2.40;;;15.20;94.70;;;;;;5070666;28;20185;-87
2022/01/01 12:43:42;;;;;;;3.87;2.40;;;15.20;94.70;;;;;;5069636;28;20227;-86
2022/01/01 12:46:13;;;;;;;4.50;2.23;;;15.30;94.60;;;;;;5071934;28;20176;-81
2022/01/01 12:48:40;;;;;;;3.83;2.23;;;15.30;94.40;;;;;;5074053;28;20172;-85
2022/01/01 12:51:11;;;;;;;3.73;2.13;;;15.40;94.30;;;;;;5069183;28;20169;-87